createdAt,value
2018-04-07T00:00:18.799Z,100304.97
2018-04-07T00:02:44.753Z,100300.45
2018-04-07T00:05:10.733Z,100295.11
2018-04-07T00:07:36.921Z,100292.09
2018-04-07T00:10:02.879Z,100286.84
2018-04-07T00:12:28.831Z,100284.02
2018-04-07T00:14:54.786Z,100285.25
2018-04-07T00:17:20.711Z,100278.34
2018-04-07T00:19:46.634Z,100283.66
2018-04-07T00:22:12.554Z,100285.70
2018-04-07T00:24:38.525Z,100284.45
2018-04-07T00:27:04.484Z,100281.42
2018-04-07T00:29:30.433Z,100284.84
2018-04-07T00:31:56.377Z,100279.34
2018-04-07T00:34:22.663Z,100276.16
2018-04-07T00:36:48.579Z,100277.17
2018-04-07T00:39:14.497Z,100265.66
2018-04-07T00:41:40.485Z,100271.30
2018-04-07T00:44:06.423Z,100268.06
2018-04-07T00:46:32.366Z,100269.16
2018-04-07T00:48:58.301Z,100267.10
2018-04-07T00:51:24.250Z,100270.02
2018-04-07T00:53:50.200Z,100270.61
2018-04-07T00:56:16.144Z,100275.75
2018-04-07T00:58:42.084Z,100269.34
2018-04-07T01:01:08.030Z,100267.19
2018-04-07T01:03:34.002Z,100262.12
2018-04-07T01:05:59.928Z,100262.89
2018-04-07T01:08:25.887Z,100263.16
2018-04-07T01:10:51.806Z,100263.97
2018-04-07T01:13:17.777Z,100261.83
2018-04-07T01:15:43.720Z,100263.66
2018-04-07T01:18:09.670Z,100264.77
2018-04-07T01:20:35.614Z,100263.34
2018-04-07T01:23:01.555Z,100260.38
2018-04-07T01:25:27.527Z,100256.71
2018-04-07T01:27:53.480Z,100255.52
2018-04-07T01:30:19.688Z,100245.71
2018-04-07T01:32:45.606Z,100247.59
2018-04-07T01:35:11.544Z,100234.84
2018-04-07T01:37:37.490Z,100248.02
2018-04-07T01:40:03.459Z,100242.48
2018-04-07T01:42:29.401Z,100243.28
2018-04-07T01:44:55.404Z,100241.64
2018-04-07T01:47:21.342Z,100247.30
2018-04-07T01:49:47.258Z,100240.27
2018-04-07T01:52:13.188Z,100242.70
2018-04-07T01:54:39.126Z,100244.69
2018-04-07T01:57:05.079Z,100235.09
2018-04-07T01:59:31.014Z,100229.60
2018-04-07T02:01:56.986Z,100231.14
2018-04-07T02:04:22.922Z,100230.58
2018-04-07T02:06:48.888Z,100231.89
2018-04-07T02:09:14.845Z,100231.06
2018-04-07T02:11:41.089Z,100235.20
2018-04-07T02:14:07.008Z,100232.41
2018-04-07T02:16:33.043Z,100226.04
2018-04-07T02:18:58.972Z,100218.16
2018-04-07T02:21:24.912Z,100215.98
2018-04-07T02:23:50.848Z,100213.41
2018-04-07T02:26:16.790Z,100210.17
2018-04-07T02:28:42.763Z,100210.58
2018-04-07T02:31:08.691Z,100216.58
2018-04-07T02:33:34.643Z,100205.91
2018-04-07T02:36:00.589Z,100198.75
2018-04-07T02:38:26.519Z,100201.84
2018-04-07T02:40:52.440Z,100194.27
2018-04-07T02:43:18.449Z,100199.30
2018-04-07T02:45:44.410Z,100195.88
2018-04-07T02:48:10.361Z,100192.50
2018-04-07T02:50:36.291Z,100193.25
2018-04-07T02:53:02.270Z,100191.50
2018-04-07T02:55:28.214Z,100184.46
2018-04-07T02:57:54.193Z,100185.00
2018-04-07T03:00:20.144Z,100178.33
2018-04-07T03:02:46.279Z,100180.16
2018-04-07T03:05:12.213Z,100185.39
2018-04-07T03:07:38.169Z,100188.03
2018-04-07T03:10:04.111Z,100183.48
2018-04-07T03:12:30.053Z,100182.46
2018-04-07T03:14:56.011Z,100182.97
2018-04-07T03:17:21.941Z,100180.00
2018-04-07T03:19:47.924Z,100180.78
2018-04-07T03:22:13.858Z,100186.27
2018-04-07T03:24:39.828Z,100190.90
2018-04-07T03:27:05.785Z,100189.41
2018-04-07T03:29:31.748Z,100180.09
2018-04-07T03:31:57.679Z,100184.15
2018-04-07T03:34:23.949Z,100190.90
2018-04-07T03:36:49.889Z,100194.54
2018-04-07T03:39:15.840Z,100195.86
2018-04-07T03:41:41.767Z,100198.45
2018-04-07T03:44:07.763Z,100196.45
2018-04-07T03:46:33.761Z,100190.95
2018-04-07T03:48:59.693Z,100188.59
2018-04-07T03:51:25.665Z,100186.02
2018-04-07T03:53:51.617Z,100192.37
2018-04-07T03:56:17.674Z,100182.83
2018-04-07T03:58:43.607Z,100188.98
2018-04-07T04:01:09.557Z,100182.99
2018-04-07T04:03:35.531Z,100185.98
2018-04-07T04:06:01.507Z,100182.23
2018-04-07T04:08:27.453Z,100184.18
2018-04-07T04:10:53.441Z,100187.05
2018-04-07T04:13:19.382Z,100177.81
2018-04-07T04:15:45.372Z,100184.73
2018-04-07T04:18:11.319Z,100179.36
2018-04-07T04:20:37.784Z,100176.55
2018-04-07T04:23:03.731Z,100170.26
2018-04-07T04:25:29.681Z,100175.25
2018-04-07T04:27:55.614Z,100181.19
2018-04-07T04:30:21.567Z,100168.30
2018-04-07T04:32:47.513Z,100178.31
2018-04-07T04:35:13.466Z,100175.47
2018-04-07T04:37:39.386Z,100168.31
2018-04-07T04:40:05.356Z,100173.92
2018-04-07T04:42:31.302Z,100165.25
2018-04-07T04:44:57.255Z,100170.13
2018-04-07T04:47:23.208Z,100166.65
2018-04-07T04:49:49.134Z,100166.95
2018-04-07T04:52:15.085Z,100162.63
2018-04-07T04:54:41.025Z,100160.24
2018-04-07T04:57:06.964Z,100164.72
2018-04-07T04:59:32.886Z,100160.92
2018-04-07T05:01:58.866Z,100162.31
2018-04-07T05:04:24.813Z,100161.97
2018-04-07T05:06:50.924Z,100154.18
2018-04-07T05:09:16.854Z,100153.21
2018-04-07T05:11:42.810Z,100156.48
2018-04-07T05:14:08.758Z,100146.71
2018-04-07T05:16:34.726Z,100152.98
2018-04-07T05:19:00.934Z,100155.97
2018-04-07T05:21:26.871Z,100150.55
2018-04-07T05:23:52.821Z,100149.36
2018-04-07T05:26:18.777Z,100154.50
2018-04-07T05:28:44.730Z,100155.05
2018-04-07T05:31:10.716Z,100152.69
2018-04-07T05:33:36.658Z,100150.64
2018-04-07T05:36:02.582Z,100145.30
2018-04-07T05:38:28.526Z,100147.61
2018-04-07T05:40:54.485Z,100153.27
2018-04-07T05:43:20.430Z,100151.71
2018-04-07T05:45:46.368Z,100153.11
2018-04-07T05:48:12.345Z,100154.33
2018-04-07T05:50:38.288Z,100152.23
2018-04-07T05:53:04.244Z,100149.89
2018-04-07T05:55:30.190Z,100158.01
2018-04-07T05:57:56.139Z,100158.62
2018-04-07T06:00:22.086Z,100153.73
2018-04-07T06:02:48.038Z,100154.45
2018-04-07T06:05:13.992Z,100154.26
2018-04-07T06:07:39.932Z,100155.63
2018-04-07T06:10:05.868Z,100149.69
2018-04-07T06:12:31.822Z,100156.45
2018-04-07T06:14:57.756Z,100151.90
2018-04-07T06:17:23.785Z,100159.63
2018-04-07T06:19:49.844Z,100147.67
2018-04-07T06:22:16.426Z,100146.91
2018-04-07T06:24:42.346Z,100144.84
2018-04-07T06:27:08.290Z,100140.79
2018-04-07T06:29:34.222Z,100133.30
2018-04-07T06:32:00.164Z,100137.94
2018-04-07T06:34:26.094Z,100147.01
2018-04-07T06:36:52.026Z,100138.55
2018-04-07T06:39:17.954Z,100146.54
2018-04-07T06:41:43.896Z,100137.32
2018-04-07T06:44:09.844Z,100141.08
2018-04-07T06:46:35.780Z,100136.43
2018-04-07T06:49:01.754Z,100125.92
2018-04-07T06:51:27.674Z,100132.77
2018-04-07T06:53:53.614Z,100131.55
2018-04-07T06:56:19.568Z,100126.00
2018-04-07T06:58:45.512Z,100126.11
2018-04-07T07:01:11.473Z,100118.52
2018-04-07T07:03:37.434Z,100119.86
2018-04-07T07:06:03.382Z,100116.02
2018-04-07T07:08:29.358Z,100117.34
2018-04-07T07:10:55.275Z,100116.94
2018-04-07T07:13:21.255Z,100119.09
2018-04-07T07:15:47.182Z,100103.86
2018-04-07T07:18:13.116Z,100112.30
2018-04-07T07:20:39.027Z,100110.21
2018-04-07T07:23:04.982Z,100125.84
2018-04-07T07:25:30.937Z,100103.45
2018-04-07T07:27:56.882Z,100109.78
2018-04-07T07:30:22.806Z,100120.75
2018-04-07T07:32:48.796Z,100109.81
2018-04-07T07:35:14.744Z,100112.74
2018-04-07T07:37:41.019Z,100105.59
2018-04-07T07:40:06.983Z,100110.63
2018-04-07T07:42:32.930Z,100099.22
2018-04-07T07:44:58.905Z,100097.95
2018-04-07T07:47:24.891Z,100101.64
2018-04-07T07:49:50.779Z,100100.47
2018-04-07T07:52:16.716Z,100106.72
2018-04-07T07:54:42.815Z,100093.22
2018-04-07T07:57:08.803Z,100089.02
2018-04-07T07:59:34.749Z,100090.76
2018-04-07T08:02:00.683Z,100076.62
2018-04-07T08:04:26.649Z,100094.80
2018-04-07T08:06:52.657Z,100085.63
2018-04-07T08:09:18.600Z,100082.52
2018-04-07T08:11:44.523Z,100079.09
2018-04-07T08:14:10.445Z,100071.85
2018-04-07T08:16:36.375Z,100073.48
2018-04-07T08:19:02.327Z,100076.27
2018-04-07T08:21:28.247Z,100076.74
2018-04-07T08:23:54.180Z,100077.84
2018-04-07T08:26:20.109Z,100073.15
2018-04-07T08:28:46.061Z,100082.19
2018-04-07T08:31:12.032Z,100062.88
2018-04-07T08:33:37.955Z,100070.05
2018-04-07T08:36:03.902Z,100067.10
2018-04-07T08:38:29.844Z,100080.61
2018-04-07T08:40:55.775Z,100061.64
2018-04-07T08:43:21.741Z,100076.36
2018-04-07T08:45:47.677Z,100069.62
2018-04-07T08:48:13.607Z,100069.24
2018-04-07T08:50:39.539Z,100053.63
2018-04-07T08:53:05.483Z,100078.55
2018-04-07T08:55:31.445Z,100057.81
2018-04-07T08:57:57.776Z,100059.09
2018-04-07T09:00:23.739Z,100055.27
2018-04-07T09:02:49.688Z,100055.28
2018-04-07T09:05:15.721Z,100042.63
2018-04-07T09:07:41.647Z,100051.48
2018-04-07T09:10:07.629Z,100060.33
2018-04-07T09:12:33.590Z,100052.34
2018-04-07T09:14:59.845Z,100035.02
2018-04-07T09:17:25.773Z,100054.83
2018-04-07T09:19:51.760Z,100045.14
2018-04-07T09:22:17.722Z,100029.92
2018-04-07T09:24:43.681Z,100040.94
2018-04-07T09:27:09.629Z,100044.77
2018-04-07T09:29:35.617Z,100023.19
2018-04-07T09:32:01.578Z,100027.44
2018-04-07T09:34:27.558Z,100040.91
2018-04-07T09:36:53.498Z,100042.17
2018-04-07T09:39:19.589Z,100030.34
2018-04-07T09:41:45.530Z,100030.78
2018-04-07T09:44:11.469Z,100026.93
2018-04-07T09:46:37.467Z,100027.78
2018-04-07T09:49:03.379Z,100020.16
2018-04-07T09:51:29.368Z,100011.68
2018-04-07T09:53:55.296Z,100031.50
2018-04-07T09:56:21.282Z,100037.45
2018-04-07T09:58:47.238Z,100048.84
2018-04-07T10:01:13.223Z,100029.84
2018-04-07T10:03:39.160Z,100032.34
2018-04-07T10:06:05.151Z,100016.66
2018-04-07T10:08:31.135Z,100026.37
2018-04-07T10:10:57.147Z,100036.07
2018-04-07T10:13:23.079Z,100019.99
2018-04-07T10:15:49.030Z,100026.30
2018-04-07T10:18:14.954Z,99998.00
2018-04-07T10:20:40.890Z,100014.47
2018-04-07T10:23:06.858Z,100004.73
2018-04-07T10:25:32.823Z,99997.48
2018-04-07T10:27:58.849Z,99991.55
2018-04-07T10:30:24.848Z,99996.60
2018-04-07T10:32:50.779Z,99985.50
2018-04-07T10:35:16.714Z,99998.23
2018-04-07T10:37:42.673Z,100001.61
2018-04-07T10:40:08.636Z,100007.05
2018-04-07T10:42:34.622Z,100007.45
2018-04-07T10:45:00.600Z,99987.49
2018-04-07T10:47:26.589Z,100000.19
2018-04-07T10:49:52.528Z,99976.85
2018-04-07T10:52:18.507Z,99981.95
2018-04-07T10:54:44.487Z,99973.45
2018-04-07T10:57:10.542Z,99970.86
2018-04-07T10:59:36.475Z,99980.14
2018-04-07T11:02:02.472Z,99968.65
2018-04-07T11:04:28.413Z,99967.78
2018-04-07T11:06:54.369Z,99983.41
2018-04-07T11:09:20.317Z,99980.44
2018-04-07T11:11:46.321Z,99979.50
2018-04-07T11:14:12.277Z,99985.81
2018-04-07T11:16:38.255Z,99985.76
2018-04-07T11:19:04.185Z,99989.54
2018-04-07T11:21:30.150Z,99975.70
2018-04-07T11:23:56.093Z,99969.27
2018-04-07T11:26:22.032Z,99975.13
2018-04-07T11:28:48.019Z,99970.36
2018-04-07T11:31:13.965Z,99972.53
2018-04-07T11:33:39.909Z,99969.97
2018-04-07T11:36:05.852Z,99967.33
2018-04-07T11:38:31.805Z,100002.06
2018-04-07T11:40:57.757Z,99966.84
2018-04-07T11:43:23.735Z,99952.91
2018-04-07T11:45:49.678Z,99968.00
2018-04-07T11:48:15.622Z,99947.22
2018-04-07T11:50:41.561Z,99959.53
2018-04-07T11:53:07.518Z,99954.09
2018-04-07T11:55:33.506Z,99952.69
2018-04-07T11:57:59.444Z,99954.79
2018-04-07T12:00:25.684Z,99961.09
2018-04-07T12:02:51.640Z,99940.70
2018-04-07T12:05:17.578Z,99951.23
2018-04-07T12:07:43.513Z,99939.39
2018-04-07T12:10:09.493Z,99950.39
2018-04-07T12:12:35.416Z,99932.45
2018-04-07T12:15:01.403Z,99934.30
2018-04-07T12:17:27.382Z,99941.41
2018-04-07T12:19:53.328Z,99935.38
2018-04-07T12:22:19.495Z,99938.77
2018-04-07T12:24:45.443Z,99924.73
2018-04-07T12:27:11.376Z,99921.84
2018-04-07T12:29:38.202Z,99932.37
2018-04-07T12:32:04.158Z,99934.44
2018-04-07T12:34:30.102Z,99925.23
2018-04-07T12:36:56.038Z,99936.40
2018-04-07T12:39:21.973Z,99915.16
2018-04-07T12:41:47.961Z,99919.31
2018-04-07T12:44:13.917Z,99914.51
2018-04-07T12:46:39.858Z,99929.05
2018-04-07T12:49:05.819Z,99915.45
2018-04-07T12:51:31.775Z,99918.34
2018-04-07T12:53:57.767Z,99910.31
2018-04-07T12:56:23.742Z,99914.04
2018-04-07T12:58:49.711Z,99917.92
2018-04-07T13:01:15.657Z,99915.28
2018-04-07T13:03:41.617Z,99906.84
2018-04-07T13:06:07.540Z,99905.58
2018-04-07T13:08:33.476Z,99905.95
2018-04-07T13:10:59.410Z,99904.52
2018-04-07T13:13:25.350Z,99913.22
2018-04-07T13:15:51.355Z,99879.58
2018-04-07T13:18:17.309Z,99900.33
2018-04-07T13:20:43.292Z,99900.47
2018-04-07T13:23:09.224Z,99879.97
2018-04-07T13:25:35.184Z,99880.42
2018-04-07T13:28:01.124Z,99884.66
2018-04-07T13:30:27.084Z,99912.66
2018-04-07T13:32:53.070Z,99880.77
2018-04-07T13:35:19.074Z,99872.91
2018-04-07T13:37:45.019Z,99871.22
2018-04-07T13:40:10.954Z,99876.20
2018-04-07T13:42:36.870Z,99863.39
2018-04-07T13:45:02.810Z,99862.97
2018-04-07T13:47:28.780Z,99850.22
2018-04-07T13:49:54.950Z,99858.70
2018-04-07T13:52:20.870Z,99857.41
2018-04-07T13:54:46.797Z,99874.18
2018-04-07T13:57:12.735Z,99849.34
2018-04-07T13:59:38.690Z,99857.97
2018-04-07T14:02:04.620Z,99862.23
2018-04-07T14:04:30.558Z,99866.28
2018-04-07T14:06:56.526Z,99869.31
2018-04-07T14:09:22.480Z,99845.69
2018-04-07T14:11:48.430Z,99844.12
2018-04-07T14:14:14.398Z,99834.39
2018-04-07T14:16:40.330Z,99826.98
2018-04-07T14:19:06.257Z,99828.95
2018-04-07T14:21:32.191Z,99832.20
2018-04-07T14:23:58.137Z,99815.29
2018-04-07T14:26:24.074Z,99816.56
2018-04-07T14:28:50.010Z,99814.02
2018-04-07T14:31:15.965Z,99815.41
2018-04-07T14:33:41.894Z,99812.09
2018-04-07T14:36:07.812Z,99813.86
2018-04-07T14:38:33.755Z,99802.52
2018-04-07T14:40:59.707Z,99802.13
2018-04-07T14:43:25.649Z,99797.55
2018-04-07T14:45:51.580Z,99796.91
2018-04-07T14:48:17.502Z,99792.82
2018-04-07T14:50:43.453Z,99789.39
2018-04-07T14:53:09.404Z,99782.54
2018-04-07T14:55:35.332Z,99777.55
2018-04-07T14:58:01.274Z,99779.37
2018-04-07T15:00:27.450Z,99760.08
2018-04-07T15:02:53.400Z,99770.13
2018-04-07T15:05:19.339Z,99764.32
2018-04-07T15:07:45.274Z,99770.59
2018-04-07T15:10:11.224Z,99765.64
2018-04-07T15:12:37.171Z,99745.39
2018-04-07T15:15:03.137Z,99753.47
2018-04-07T15:17:29.070Z,99747.38
2018-04-07T15:19:54.995Z,99758.42
2018-04-07T15:22:20.943Z,99745.47
2018-04-07T15:24:46.889Z,99745.00
2018-04-07T15:27:12.976Z,99750.60
2018-04-07T15:29:38.912Z,99751.84
2018-04-07T15:32:04.857Z,99750.15
2018-04-07T15:34:30.801Z,99751.80
2018-04-07T15:36:56.727Z,99742.50
2018-04-07T15:39:22.811Z,99742.35
2018-04-07T15:41:48.747Z,99738.98
2018-04-07T15:44:14.663Z,99741.92
2018-04-07T15:46:40.591Z,99738.77
2018-04-07T15:49:06.515Z,99735.48
2018-04-07T15:51:32.441Z,99738.81
2018-04-07T15:53:58.365Z,99723.70
2018-04-07T15:56:24.308Z,99721.08
2018-04-07T15:58:50.261Z,99709.88
2018-04-07T16:01:16.235Z,99722.12
2018-04-07T16:03:42.227Z,99728.33
2018-04-07T16:06:08.161Z,99716.67
2018-04-07T16:08:34.088Z,99702.38
2018-04-07T16:11:00.008Z,99730.73
2018-04-07T16:13:25.954Z,99708.56
2018-04-07T16:15:51.888Z,99722.94
2018-04-07T16:18:17.868Z,99702.81
2018-04-07T16:20:43.821Z,99714.83
2018-04-07T16:23:10.020Z,99712.73
2018-04-07T16:25:36.019Z,99711.85
2018-04-07T16:28:01.987Z,99720.08
2018-04-07T16:30:27.986Z,99706.86
2018-04-07T16:32:54.013Z,99701.27
2018-04-07T16:35:20.027Z,99697.98
2018-04-07T16:37:46.082Z,99708.11
2018-04-07T16:40:12.085Z,99714.20
2018-04-07T16:42:38.125Z,99704.85
2018-04-07T16:45:04.075Z,99719.34
2018-04-07T16:47:30.023Z,99704.47
2018-04-07T16:49:55.994Z,99709.14
2018-04-07T16:52:22.020Z,99722.38
2018-04-07T16:54:48.026Z,99708.78
2018-04-07T16:57:13.958Z,99711.66
2018-04-07T16:59:40.032Z,99719.06
2018-04-07T17:02:06.091Z,99711.83
2018-04-07T17:04:32.021Z,99714.81
2018-04-07T17:06:58.258Z,99702.67
2018-04-07T17:09:24.186Z,99698.81
2018-04-07T17:11:50.113Z,99716.02
2018-04-07T17:14:16.110Z,99710.43
2018-04-07T17:16:42.032Z,99723.62
2018-04-07T17:19:07.998Z,99719.84
2018-04-07T17:21:33.984Z,99716.91
2018-04-07T17:24:00.090Z,99703.35
2018-04-07T17:26:26.020Z,99700.45
2018-04-07T17:28:51.997Z,99713.22
2018-04-07T17:31:17.968Z,99711.06
2018-04-07T17:33:43.986Z,99711.17
2018-04-07T17:36:09.935Z,99741.39
2018-04-07T17:38:35.872Z,99720.09
2018-04-07T17:41:01.824Z,99712.05
2018-04-07T17:43:28.816Z,99713.82
2018-04-07T17:45:54.783Z,99733.03
2018-04-07T17:48:20.732Z,99725.81
2018-04-07T17:50:46.793Z,99711.52
2018-04-07T17:53:12.815Z,99736.17
2018-04-07T17:55:38.735Z,99714.16
2018-04-07T17:58:04.683Z,99710.38
2018-04-07T18:00:30.655Z,99711.25
2018-04-07T18:02:56.588Z,99713.05
2018-04-07T18:05:22.627Z,99712.66
2018-04-07T18:07:48.567Z,99720.82
2018-04-07T18:10:14.516Z,99714.84
2018-04-07T18:12:40.457Z,99717.88
2018-04-07T18:15:06.406Z,99734.86
2018-04-07T18:17:32.361Z,99723.43
2018-04-07T18:22:30.592Z,99727.34
2018-04-07T18:24:56.531Z,99726.11
2018-04-07T18:27:22.512Z,99735.50
2018-04-07T18:29:48.480Z,99738.56
2018-04-07T18:32:14.634Z,99735.56
2018-04-07T18:34:40.596Z,99738.11
2018-04-07T18:37:06.538Z,99744.59
2018-04-07T18:39:32.474Z,99745.90
2018-04-07T18:41:58.534Z,99747.59
2018-04-07T18:44:24.458Z,99743.38
2018-04-07T18:46:50.411Z,99752.32
2018-04-07T18:49:16.374Z,99730.72
2018-04-07T18:51:42.298Z,99743.95
2018-04-07T18:54:08.311Z,99739.31
2018-04-07T18:56:34.255Z,99745.31
2018-04-07T18:59:00.227Z,99736.04
2018-04-07T19:01:26.171Z,99741.08
2018-04-07T19:03:52.150Z,99739.52
2018-04-07T19:06:18.139Z,99746.70
2018-04-07T19:08:44.065Z,99740.77
2018-04-07T19:11:10.030Z,99744.22
2018-04-07T19:13:35.986Z,99745.45
2018-04-07T19:16:02.044Z,99746.34
2018-04-07T19:18:27.995Z,99746.39
2018-04-07T19:20:54.119Z,99750.09
2018-04-07T19:23:20.084Z,99761.27
2018-04-07T19:25:46.059Z,99759.22
2018-04-07T19:28:12.021Z,99748.96
2018-04-07T19:30:37.980Z,99760.84
2018-04-07T19:33:03.957Z,99756.23
2018-04-07T19:35:29.891Z,99754.08
2018-04-07T19:37:55.839Z,99756.68
2018-04-07T19:40:21.767Z,99746.53
2018-04-07T19:42:47.745Z,99754.64
2018-04-07T19:45:13.739Z,99746.67
2018-04-07T19:47:39.681Z,99744.97
2018-04-07T19:50:05.900Z,99743.30
2018-04-07T19:52:31.885Z,99748.87
2018-04-07T19:54:57.886Z,99743.52
2018-04-07T19:57:23.818Z,99748.09
2018-04-07T19:59:49.762Z,99740.57
2018-04-07T20:02:15.928Z,99749.90
2018-04-07T20:04:41.889Z,99747.44
2018-04-07T20:07:07.855Z,99752.07
2018-04-07T20:09:33.813Z,99749.17
2018-04-07T20:11:59.801Z,99746.64
2018-04-07T20:14:25.794Z,99744.57
2018-04-07T20:16:51.909Z,99744.17
2018-04-07T20:19:17.944Z,99742.47
2018-04-07T20:21:44.100Z,99745.81
2018-04-07T20:24:11.383Z,99746.34
2018-04-07T20:26:37.603Z,99755.70
2018-04-07T20:29:03.572Z,99748.28
2018-04-07T20:31:29.514Z,99738.98
2018-04-07T20:33:55.472Z,99743.15
2018-04-07T20:36:23.113Z,99755.44
2018-04-07T20:38:49.103Z,99764.33
2018-04-07T20:41:15.061Z,99750.42
2018-04-07T20:43:41.047Z,99761.02
2018-04-07T20:46:06.995Z,99762.42
2018-04-07T20:48:32.933Z,99754.75
2018-04-07T20:50:58.878Z,99757.01
2018-04-07T20:53:24.818Z,99748.89
2018-04-07T20:55:50.791Z,99749.67
2018-04-07T20:58:16.811Z,99746.52
2018-04-07T21:00:42.997Z,99737.16
2018-04-07T21:03:09.856Z,99739.73
2018-04-07T21:05:35.800Z,99745.05
2018-04-07T21:08:01.731Z,99747.37
2018-04-07T21:10:27.718Z,99747.09
2018-04-07T21:12:53.645Z,99750.35
2018-04-07T21:15:19.567Z,99758.94
2018-04-07T21:17:45.487Z,99750.04
2018-04-07T21:20:11.423Z,99755.61
2018-04-07T21:22:37.363Z,99753.34
2018-04-07T21:25:03.295Z,99752.71
2018-04-07T21:27:29.284Z,99757.66
2018-04-07T21:29:55.381Z,99749.70
2018-04-07T21:32:21.321Z,99751.76
2018-04-07T21:34:47.268Z,99743.94
2018-04-07T21:37:13.250Z,99753.27
2018-04-07T21:39:39.188Z,99745.31
2018-04-07T21:42:05.140Z,99745.67
2018-04-07T21:44:31.127Z,99745.61
2018-04-07T21:46:57.059Z,99741.42
2018-04-07T21:49:23.016Z,99745.33
2018-04-07T21:51:48.973Z,99739.11
2018-04-07T21:54:14.899Z,99727.56
2018-04-07T21:56:40.839Z,99725.41
2018-04-07T21:59:06.800Z,99730.86
2018-04-07T22:01:32.738Z,99720.95
2018-04-07T22:03:58.677Z,99731.09
2018-04-07T22:06:24.611Z,99729.41
2018-04-07T22:08:50.574Z,99729.45
2018-04-07T22:11:16.581Z,99729.34
2018-04-07T22:13:42.844Z,99743.41
2018-04-07T22:16:08.798Z,99737.75
2018-04-07T22:18:34.745Z,99730.86
2018-04-07T22:21:00.705Z,99735.21
2018-04-07T22:23:26.664Z,99733.08
2018-04-07T22:25:52.597Z,99722.45
2018-04-07T22:28:18.536Z,99728.13
2018-04-07T22:30:44.477Z,99741.90
2018-04-07T22:33:10.445Z,99730.58
2018-04-07T22:35:36.396Z,99731.68
2018-04-07T22:38:02.314Z,99723.90
2018-04-07T22:40:28.238Z,99731.29
2018-04-07T22:42:54.172Z,99718.00
2018-04-07T22:45:20.110Z,99732.84
2018-04-07T22:47:46.051Z,99748.55
2018-04-07T22:50:11.976Z,99733.56
2018-04-07T22:52:38.168Z,99730.52
2018-04-07T22:55:04.094Z,99732.22
2018-04-07T22:57:30.050Z,99733.04
2018-04-07T22:59:56.001Z,99736.33
2018-04-07T23:02:21.976Z,99735.00
2018-04-07T23:04:47.898Z,99736.36
2018-04-07T23:07:13.828Z,99716.58
2018-04-07T23:09:39.777Z,99722.34
2018-04-07T23:12:05.710Z,99723.78
2018-04-07T23:14:31.647Z,99723.92
2018-04-07T23:16:57.604Z,99731.96
2018-04-07T23:19:23.585Z,99715.73
2018-04-07T23:21:49.506Z,99715.08
2018-04-07T23:24:15.495Z,99712.08
2018-04-07T23:26:41.473Z,99718.81
2018-04-07T23:29:07.543Z,99708.71
2018-04-07T23:31:33.474Z,99706.70
2018-04-07T23:33:59.402Z,99701.34
2018-04-07T23:36:25.336Z,99693.81
2018-04-07T23:38:51.262Z,99705.25
2018-04-07T23:41:17.199Z,99700.08
2018-04-07T23:43:43.134Z,99691.97
2018-04-07T23:46:09.104Z,99698.95
2018-04-07T23:48:35.030Z,99693.00
2018-04-07T23:51:00.962Z,99709.50
2018-04-07T23:53:26.908Z,99689.69
2018-04-07T23:55:52.844Z,99691.22
2018-04-07T23:58:18.781Z,99693.98
